Etusivu
METAR-TAF:

METAR-TAF

Lentoasemat :

Bowman Field

Louisville, Kentucky, Yhdysvallat

Leveyspiiri: 38-13-40N, Pituuspiiri: 085-39-49W, korkeus merenpinnasta: 166 m

Tämänhetkinen sää

Tämä raportti tehtiin 32 minuuttia sitten, kello 03.53 UTC
Tuuli 5 kn pohjoisen/luoteesta
Lämpötila 14°C
Kosteus 67%
Ilmanpaine 1017 hPa
Näkyvyys: 16.1 km
selkeää

METAR: KLOU 050353Z AUTO 34005KT 10SM CLR 14/08 A3004 RMK AO2 SLP170 T01390083

Aika: 00:25 (04:25 UTC)


TAF: puuttuu

Säähavainnot ja -ennusteet yli 4000 lentoasemalta (METAR- ja TAF-raportit).

Käytössä olevat sääasemat on merkitty karttaan keltaisilla ja punaisilla pisteillä.

Aseta hiiri pisteen päälle nähdäksesi sääaseman nimen.

Klikkaa sitten nähdäksesi säähavainnot ja -ennusteet.

Kartan vaihtaminen: klikkaa mustalla rastilla varustettuja vihreitä pisteitä, niin voit zoomata sisään; viivalla varustettua vihreää pistettä, niin voit zoomata ulos tai vihreitä nuolia, niin pääset viereisille kartoille.


METAR-TAF: